Washington, GA (30673)

21:53 EDT 25. Září 2016 (GMT -0400)
Washington-Wilkes County | | Change Station

Výška 646 ft 33.78 °N, 82.82 °W | Updated 18 minutes ago

Clear
Jasno
81 °F
Pocit jako 83 °F
S
6
Vítr proměnlivý Vítr od JJV

Dnes
Vysoké -- | Nízké -- °F
--% Možnost srážek
Včera
Vysoké -- | Nízké -- °F
Precip. -- inčů
Tlak 30.08 inčů
Viditelnost 10.0 mílí
Zataženo Jasno
Tepelný index 83 °F
Rosný bod 68 °F
Vlhkost 65%
Dešťové srážky 0.00 inčů
Sněhová pokrývka Není k dispozici
7:21 AM 7:22 PM
Ubývající srpek, 23% visible
METAR KIIY 260135Z AUTO 16005KT 10SM CLR 27/20 A3008 RMK AO2 LTG DSNT S
Tlak 30.08 inčů
Viditelnost 10.0 mílí
Zataženo Jasno
Tepelný index 83 °F
Rosný bod 68 °F
Vlhkost 65%
Dešťové srážky 0.00 inčů
Sněhová pokrývka Není k dispozici
7:21 AM 7:22 PM
Ubývající srpek, 23% visible
METAR KIIY 260135Z AUTO 16005KT 10SM CLR 27/20 A3008 RMK AO2 LTG DSNT S

10-Day Weather Forecast

Almanac

Astronomie

Sep. 25, 2016 Východ Západ
Skutečný čas
Občanský soumrak
Námořní soumrak
Astronomický soumrak
Měsíc
Délka denního světla
Délka dne
Tomorrow will be .
, % of the Moon is Illuminated

Dnešní extrémy

State Highs State Lows

Community

WunderPhotos

Upload Photos

1,941,808 snímků staženo!

WunderBlog® & News

Nearby

Kvalita ovzduší

  Kvalita ovzduší Index kvality ovzduší Polutant
Not available.

Výška sněhu

Station Hloubka Nadmořská výška

Seizmická činnost

Město Distance Mag. Čas & datum
Minimální zobrazený rozsah je 2.5.

Pobřežní teplota vody

Lokalita Teplota

Stations

Poblíž povětrnostní stanice

Lokace stanice Tepl. Ochlazování větrem Rosný bod Vlhkost Vítr Precip. Výška Čas hlášení Typ
                   

Watches & Warnings

There are currently no watches in effect.